createdAt,value
2022-10-28T00:00:52.729Z,57.42
2022-10-28T00:03:20.786Z,54.80
2022-10-28T00:05:48.237Z,52.92
2022-10-28T00:08:15.095Z,57.28
2022-10-28T00:10:41.920Z,54.20
2022-10-28T00:13:08.835Z,56.90
2022-10-28T00:15:35.852Z,57.80
2022-10-28T00:18:02.677Z,56.47
2022-10-28T00:20:31.666Z,56.83
2022-10-28T00:22:58.555Z,60.25
2022-10-28T00:25:25.567Z,55.78
2022-10-28T00:27:53.067Z,54.97
2022-10-28T00:30:20.376Z,53.47
2022-10-28T00:32:47.330Z,59.15
2022-10-28T00:35:14.310Z,56.92
2022-10-28T00:37:41.262Z,57.65
2022-10-28T00:40:08.785Z,57.63
2022-10-28T00:42:35.683Z,56.10
2022-10-28T00:45:03.930Z,56.70
2022-10-28T00:47:56.044Z,54.40
2022-10-28T00:50:51.852Z,57.72
2022-10-28T00:53:30.811Z,58.58
2022-10-28T00:56:01.512Z,55.95
2022-10-28T00:58:29.534Z,53.70
2022-10-28T01:00:57.997Z,57.90
2022-10-28T01:03:25.038Z,55.75
2022-10-28T01:05:53.597Z,57.28
2022-10-28T01:08:20.737Z,59.75
2022-10-28T01:10:47.549Z,59.97
2022-10-28T01:13:31.182Z,56.25
2022-10-28T01:16:05.481Z,55.30
2022-10-28T01:19:00.935Z,58.08
2022-10-28T01:21:49.305Z,60.60
2022-10-28T01:24:36.477Z,53.85
2022-10-28T01:27:23.343Z,58.88
2022-10-28T01:30:06.038Z,61.83
2022-10-28T01:33:06.474Z,58.53
2022-10-28T01:36:13.813Z,59.45
2022-10-28T01:38:56.118Z,62.00
2022-10-28T01:41:48.113Z,63.83
2022-10-28T01:44:25.346Z,56.30
2022-10-28T01:47:03.035Z,61.60
2022-10-28T01:49:39.551Z,60.47
2022-10-28T01:52:12.441Z,54.85
2022-10-28T01:54:43.211Z,58.38
2022-10-28T01:57:12.217Z,59.33
2022-10-28T01:59:41.079Z,61.60
2022-10-28T02:02:07.916Z,57.78
2022-10-28T02:04:36.272Z,55.20
2022-10-28T02:07:03.146Z,56.83
2022-10-28T02:09:48.542Z,58.53
2022-10-28T02:12:32.041Z,58.80
2022-10-28T02:15:18.546Z,57.17
2022-10-28T02:18:29.937Z,59.22
2022-10-28T02:21:33.540Z,56.53
2022-10-28T02:24:18.555Z,61.53
2022-10-28T02:26:54.949Z,61.70
2022-10-28T02:29:37.379Z,60.43
2022-10-28T02:32:11.411Z,56.22
2022-10-28T02:34:42.191Z,56.67
2022-10-28T02:37:14.721Z,59.05
2022-10-28T02:39:49.037Z,57.47
2022-10-28T02:42:24.355Z,58.00
2022-10-28T02:45:00.315Z,54.72
2022-10-28T02:47:33.735Z,55.70
2022-10-28T02:50:04.692Z,56.58
2022-10-28T02:52:33.446Z,55.03
2022-10-28T02:55:04.660Z,54.95
2022-10-28T02:57:35.327Z,54.00
2022-10-28T03:00:07.191Z,53.75
2022-10-28T03:02:34.276Z,50.20
2022-10-28T03:05:01.131Z,53.45
2022-10-28T03:07:28.065Z,52.50
2022-10-28T03:09:54.898Z,53.47
2022-10-28T03:12:21.757Z,54.88
2022-10-28T03:14:48.651Z,51.00
2022-10-28T03:17:15.704Z,53.22
2022-10-28T03:19:42.588Z,52.72
2022-10-28T03:22:11.707Z,52.63
2022-10-28T03:24:38.651Z,53.95
2022-10-28T03:27:05.498Z,53.50
2022-10-28T03:29:32.411Z,52.25
2022-10-28T03:31:59.247Z,52.95
2022-10-28T03:34:26.203Z,52.72
2022-10-28T03:36:53.096Z,54.83
2022-10-28T03:39:20.054Z,52.92
2022-10-28T03:41:46.921Z,55.10
2022-10-28T03:44:13.752Z,52.60
2022-10-28T03:46:40.627Z,53.80
2022-10-28T03:49:07.492Z,55.10
2022-10-28T03:51:34.468Z,58.43
2022-10-28T03:54:01.426Z,57.77
2022-10-28T03:56:28.346Z,59.20
2022-10-28T03:58:55.164Z,62.87
2022-10-28T04:01:22.273Z,58.53
2022-10-28T04:03:49.250Z,59.97
2022-10-28T04:06:16.835Z,61.07
2022-10-28T04:08:43.829Z,61.03
2022-10-28T04:11:10.781Z,64.97
2022-10-28T04:13:37.721Z,61.13
2022-10-28T04:16:05.013Z,61.43
2022-10-28T04:18:32.181Z,60.53
2022-10-28T04:20:59.168Z,63.37
2022-10-28T04:23:26.050Z,57.70
2022-10-28T04:25:54.636Z,61.40
2022-10-28T04:28:24.139Z,60.37
2022-10-28T04:30:53.757Z,70.23
2022-10-28T04:33:20.678Z,59.80
2022-10-28T04:35:47.599Z,64.40
2022-10-28T04:38:15.496Z,64.07
2022-10-28T04:40:42.603Z,62.63
2022-10-28T04:43:11.799Z,59.77
2022-10-28T04:45:39.325Z,60.53
2022-10-28T04:48:06.708Z,62.70
2022-10-28T04:50:33.662Z,61.23
2022-10-28T04:53:10.433Z,63.67
2022-10-28T04:55:37.379Z,61.17
2022-10-28T04:58:04.516Z,62.10
2022-10-28T05:00:31.451Z,61.57
2022-10-28T05:03:01.910Z,58.37
2022-10-28T05:05:28.870Z,58.07
2022-10-28T05:07:56.005Z,54.07
2022-10-28T05:10:23.427Z,53.80
2022-10-28T05:12:50.284Z,50.30
2022-10-28T05:15:17.206Z,51.40
2022-10-28T05:17:46.356Z,54.17
2022-10-28T05:20:15.823Z,53.93
2022-10-28T05:22:55.166Z,56.80
2022-10-28T05:25:23.020Z,57.47
2022-10-28T05:27:50.608Z,59.50
2022-10-28T05:30:18.906Z,59.13
2022-10-28T05:32:48.230Z,57.77
2022-10-28T05:35:17.364Z,52.13
2022-10-28T05:37:44.532Z,50.27
2022-10-28T05:40:11.962Z,50.33
2022-10-28T05:42:42.631Z,56.63
2022-10-28T05:45:10.862Z,47.60
2022-10-28T05:47:43.349Z,52.97
2022-10-28T05:50:10.702Z,49.60
2022-10-28T05:52:37.675Z,52.30
2022-10-28T05:55:05.559Z,50.80
2022-10-28T05:57:35.769Z,48.17
2022-10-28T06:00:03.706Z,52.43
2022-10-28T06:02:39.566Z,50.73
2022-10-28T06:05:06.705Z,50.27
2022-10-28T06:07:34.917Z,46.20
2022-10-28T06:10:02.984Z,48.07
2022-10-28T06:12:28.595Z,48.90
2022-10-28T06:14:58.482Z,48.23
2022-10-28T06:17:25.410Z,46.13
2022-10-28T06:19:52.357Z,50.03
2022-10-28T06:22:19.335Z,48.13
2022-10-28T06:24:46.189Z,53.97
2022-10-28T06:27:13.162Z,55.17
2022-10-28T06:29:40.150Z,46.00
2022-10-28T06:32:10.177Z,50.63
2022-10-28T06:34:37.843Z,49.97
2022-10-28T06:37:05.744Z,49.23
2022-10-28T06:39:33.022Z,50.13
2022-10-28T06:41:59.959Z,49.60
2022-10-28T06:44:26.829Z,49.17
2022-10-28T06:46:56.595Z,50.30
2022-10-28T06:49:23.444Z,51.23
2022-10-28T06:51:50.321Z,51.03
2022-10-28T06:54:18.145Z,50.93
2022-10-28T06:56:47.753Z,56.87
2022-10-28T06:59:14.632Z,50.70
2022-10-28T07:01:42.009Z,56.43
2022-10-28T07:04:13.298Z,55.10
2022-10-28T07:06:40.753Z,55.83
2022-10-28T07:09:07.758Z,54.03
2022-10-28T07:11:44.884Z,55.50
2022-10-28T07:14:11.749Z,57.43
2022-10-28T07:16:38.641Z,55.13
2022-10-28T07:19:05.579Z,54.25
2022-10-28T07:21:32.521Z,52.73
2022-10-28T07:23:59.420Z,56.17
2022-10-28T07:26:26.803Z,56.27
2022-10-28T07:28:54.085Z,60.28
2022-10-28T07:31:21.252Z,53.55
2022-10-28T07:33:54.892Z,57.67
2022-10-28T07:36:22.110Z,55.53
2022-10-28T07:38:51.738Z,50.38
2022-10-28T07:41:20.736Z,54.03
2022-10-28T07:43:48.289Z,52.83
2022-10-28T07:46:15.624Z,54.47
2022-10-28T07:48:42.592Z,52.00
2022-10-28T07:51:12.021Z,55.85
2022-10-28T07:53:39.013Z,56.53
2022-10-28T07:56:13.796Z,48.50
2022-10-28T07:58:42.972Z,55.15
2022-10-28T08:01:11.803Z,57.03
2022-10-28T08:03:39.375Z,55.83
2022-10-28T08:06:11.863Z,53.47
2022-10-28T08:08:39.605Z,55.65
2022-10-28T08:11:16.064Z,59.63
2022-10-28T08:13:43.314Z,55.10
2022-10-28T08:16:10.394Z,57.80
2022-10-28T08:18:38.742Z,54.63
2022-10-28T08:21:08.363Z,56.00
2022-10-28T08:23:35.607Z,52.83
2022-10-28T08:26:02.792Z,53.10
2022-10-28T08:28:29.785Z,60.13
2022-10-28T08:31:10.249Z,56.88
2022-10-28T08:33:47.584Z,53.38
2022-10-28T08:36:16.608Z,51.70
2022-10-28T08:38:45.841Z,52.67
2022-10-28T08:41:24.466Z,52.20
2022-10-28T08:44:07.465Z,55.10
2022-10-28T08:46:37.310Z,57.45
2022-10-28T08:49:11.189Z,50.42
2022-10-28T08:51:45.943Z,59.28
2022-10-28T08:54:39.843Z,54.10
2022-10-28T08:57:18.059Z,53.55
2022-10-28T08:59:46.606Z,51.63
2022-10-28T09:02:36.153Z,53.67
2022-10-28T09:05:15.527Z,53.25
2022-10-28T09:07:42.537Z,54.50
2022-10-28T09:10:14.747Z,55.10
2022-10-28T09:13:23.826Z,51.85
2022-10-28T09:16:45.648Z,51.80
2022-10-28T09:19:22.385Z,49.63
2022-10-28T09:22:00.612Z,47.72
2022-10-28T09:24:46.221Z,53.13
2022-10-28T09:27:13.589Z,52.72
2022-10-28T09:29:57.601Z,51.60
2022-10-28T09:32:27.076Z,50.47
2022-10-28T09:35:08.764Z,46.92
2022-10-28T09:37:49.594Z,47.53
2022-10-28T09:40:25.248Z,48.22
2022-10-28T09:43:07.196Z,45.72
2022-10-28T09:45:40.112Z,50.10
2022-10-28T09:48:19.374Z,59.17
2022-10-28T09:50:51.042Z,48.38
2022-10-28T09:53:36.042Z,45.95
2022-10-28T09:56:06.312Z,48.70
2022-10-28T09:58:34.724Z,48.17
2022-10-28T10:01:03.640Z,50.95
2022-10-28T10:03:31.233Z,47.95
2022-10-28T10:06:11.505Z,49.72
2022-10-28T10:08:40.523Z,45.00
2022-10-28T10:11:19.016Z,47.65
2022-10-28T10:13:46.706Z,46.50
2022-10-28T10:16:18.325Z,53.83
2022-10-28T10:18:57.779Z,47.70
2022-10-28T10:21:44.867Z,46.33
2022-10-28T10:24:34.002Z,44.83
2022-10-28T10:27:03.905Z,44.22
2022-10-28T10:29:32.241Z,41.78
2022-10-28T10:32:12.795Z,41.03
2022-10-28T10:34:50.193Z,41.78
2022-10-28T10:37:22.799Z,46.20
2022-10-28T10:40:07.226Z,41.53
2022-10-28T10:42:39.193Z,42.95
2022-10-28T10:45:22.495Z,42.58
2022-10-28T10:47:49.454Z,43.65
2022-10-28T10:53:01.912Z,44.35
2022-10-28T10:55:39.786Z,38.83
2022-10-28T10:58:20.129Z,41.63
2022-10-28T11:00:52.435Z,41.33
2022-10-28T11:03:31.576Z,45.13
2022-10-28T11:06:21.986Z,41.95
2022-10-28T11:08:47.613Z,36.38
2022-10-28T11:11:20.352Z,42.13
2022-10-28T11:13:48.857Z,42.10
2022-10-28T11:16:25.192Z,40.38
2022-10-28T11:18:53.381Z,35.60
2022-10-28T11:21:58.634Z,35.03
2022-10-28T11:25:16.547Z,36.13
2022-10-28T11:27:48.620Z,36.83
2022-10-28T11:30:26.568Z,34.50
2022-10-28T11:33:38.035Z,31.48
2022-10-28T11:36:29.879Z,33.47
2022-10-28T11:39:20.109Z,37.70
2022-10-28T11:41:57.705Z,29.80
2022-10-28T11:44:47.909Z,33.42
2022-10-28T11:56:51.239Z,32.92
2022-10-28T11:59:59.145Z,34.08
2022-10-28T12:02:57.028Z,36.90
2022-10-28T12:05:38.456Z,35.03
2022-10-28T12:08:24.562Z,27.98
2022-10-28T12:11:02.870Z,28.73
2022-10-28T12:13:44.702Z,30.23
2022-10-28T12:16:17.315Z,32.92
2022-10-28T12:19:18.312Z,26.38
2022-10-28T12:22:06.853Z,25.98
2022-10-28T12:24:36.959Z,26.75
2022-10-28T12:27:15.380Z,25.73
2022-10-28T12:29:50.189Z,24.50
2022-10-28T12:32:29.433Z,23.42
2022-10-28T12:35:02.926Z,25.48
2022-10-28T12:37:48.800Z,23.65
2022-10-28T12:43:16.326Z,27.50
2022-10-28T12:45:43.538Z,26.63
2022-10-28T12:48:50.016Z,25.50
2022-10-28T12:51:37.632Z,23.42
2022-10-28T12:54:42.161Z,23.40
2022-10-28T12:57:23.220Z,26.88
2022-10-28T13:00:15.881Z,23.38
2022-10-28T13:03:04.192Z,23.63
2022-10-28T13:06:07.076Z,23.10
2022-10-28T13:11:35.308Z,22.80
2022-10-28T13:14:36.352Z,24.85
2022-10-28T13:17:18.084Z,24.33
2022-10-28T13:20:00.168Z,22.77
2022-10-28T13:22:52.649Z,28.67
2022-10-28T13:25:43.482Z,30.58
2022-10-28T13:28:18.758Z,26.92
2022-10-28T13:31:08.619Z,22.15
2022-10-28T13:33:37.978Z,23.73
2022-10-28T13:36:26.784Z,20.45
2022-10-28T13:39:00.396Z,26.08
2022-10-28T13:41:36.421Z,23.75
2022-10-28T13:44:09.557Z,22.40
2022-10-28T13:47:13.225Z,21.05
2022-10-28T13:50:09.404Z,25.83
2022-10-28T13:52:43.271Z,21.58
2022-10-28T13:55:40.706Z,20.65
2022-10-28T13:58:48.515Z,26.02
2022-10-28T14:01:47.667Z,26.80
2022-10-28T14:04:38.621Z,21.00
2022-10-28T14:07:31.360Z,27.05
2022-10-28T14:10:17.594Z,24.58
2022-10-28T14:12:55.878Z,23.92
2022-10-28T14:15:24.778Z,24.50
2022-10-28T14:18:04.946Z,25.10
2022-10-28T14:20:47.944Z,29.65
2022-10-28T14:23:51.280Z,26.17
2022-10-28T14:26:23.371Z,23.55
2022-10-28T14:28:52.779Z,24.70
2022-10-28T14:31:32.794Z,32.58
2022-10-28T14:33:59.629Z,29.38
2022-10-28T14:36:47.298Z,27.70
2022-10-28T14:39:40.606Z,26.27
2022-10-28T14:42:27.000Z,25.80
2022-10-28T14:45:20.576Z,32.28
2022-10-28T14:48:32.941Z,25.15
2022-10-28T14:51:02.338Z,27.35
2022-10-28T14:53:36.320Z,24.42
2022-10-28T14:56:08.244Z,23.73
2022-10-28T14:58:41.368Z,25.58
2022-10-28T15:01:25.500Z,34.65
2022-10-28T15:03:59.309Z,29.38
2022-10-28T15:06:31.578Z,26.02
2022-10-28T15:09:05.626Z,31.88
2022-10-28T15:11:33.600Z,27.77
2022-10-28T15:14:14.431Z,28.27
2022-10-28T15:16:50.808Z,24.80
2022-10-28T15:19:33.016Z,27.05
2022-10-28T15:22:07.482Z,21.58
2022-10-28T15:24:34.475Z,22.05
2022-10-28T15:27:01.703Z,27.38
2022-10-28T15:29:28.659Z,26.77
2022-10-28T15:32:10.106Z,24.98
2022-10-28T15:34:38.186Z,20.88
2022-10-28T15:37:08.039Z,27.00
2022-10-28T15:39:39.447Z,23.05
2022-10-28T15:42:29.494Z,25.00
2022-10-28T15:45:00.746Z,29.73
2022-10-28T15:47:34.794Z,26.85
2022-10-28T15:50:15.702Z,24.00
2022-10-28T15:52:48.232Z,29.13
2022-10-28T15:55:35.972Z,25.48
2022-10-28T15:58:19.292Z,26.33
2022-10-28T16:00:55.001Z,28.17
2022-10-28T16:03:26.072Z,32.97
2022-10-28T16:05:57.769Z,43.53
2022-10-28T16:08:32.533Z,46.55
2022-10-28T16:11:06.757Z,42.33
2022-10-28T16:13:37.433Z,32.90
2022-10-28T16:16:09.242Z,28.05
2022-10-28T16:18:46.558Z,30.42
2022-10-28T16:21:34.133Z,30.30
2022-10-28T16:24:01.107Z,29.35
2022-10-28T16:26:29.187Z,29.20
2022-10-28T16:28:56.807Z,28.35
2022-10-28T16:31:28.464Z,24.85
2022-10-28T16:33:55.577Z,25.40
2022-10-28T16:36:22.564Z,28.38
2022-10-28T16:38:49.511Z,26.20
2022-10-28T16:41:19.858Z,26.70
2022-10-28T16:43:47.483Z,30.02
2022-10-28T16:46:15.085Z,26.23
2022-10-28T16:48:44.531Z,27.88
2022-10-28T16:51:17.955Z,27.00
2022-10-28T16:53:49.906Z,28.23
2022-10-28T16:56:20.896Z,24.00
2022-10-28T16:58:53.057Z,24.65
2022-10-28T17:01:22.735Z,24.33
2022-10-28T17:03:50.377Z,28.25
2022-10-28T17:06:17.735Z,26.02
2022-10-28T17:11:32.823Z,25.98
2022-10-28T17:14:00.538Z,25.98
2022-10-28T17:16:27.356Z,26.00
2022-10-28T17:18:55.197Z,25.90
2022-10-28T17:21:22.635Z,25.98
2022-10-28T17:23:49.616Z,30.08
2022-10-28T17:26:16.495Z,26.05
2022-10-28T17:28:44.685Z,31.35
2022-10-28T17:31:12.374Z,24.63
2022-10-28T17:33:40.271Z,29.42
2022-10-28T17:36:14.356Z,24.98
2022-10-28T17:38:45.078Z,26.48
2022-10-28T17:41:14.782Z,31.02
2022-10-28T17:43:44.130Z,29.67
2022-10-28T17:46:11.527Z,29.08
2022-10-28T17:48:47.436Z,33.83
2022-10-28T17:51:15.290Z,28.55
2022-10-28T17:53:42.125Z,26.45
2022-10-28T17:56:10.940Z,27.30
2022-10-28T17:58:37.944Z,27.50
2022-10-28T18:01:09.005Z,27.20
2022-10-28T18:03:38.997Z,29.58
2022-10-28T18:06:10.442Z,30.13
2022-10-28T18:08:42.545Z,29.38
2022-10-28T18:11:13.243Z,30.73
2022-10-28T18:13:42.393Z,25.92
2022-10-28T18:16:13.451Z,30.63
2022-10-28T18:18:42.525Z,25.02
2022-10-28T18:21:11.690Z,27.67
2022-10-28T18:23:39.237Z,30.55
2022-10-28T18:26:09.980Z,27.67
2022-10-28T18:28:37.732Z,31.52
2022-10-28T18:31:07.237Z,24.17
2022-10-28T18:33:34.844Z,27.73
2022-10-28T18:36:06.867Z,32.03
2022-10-28T18:38:34.103Z,25.08
2022-10-28T18:41:01.359Z,27.23
2022-10-28T18:43:29.595Z,26.70
2022-10-28T18:46:02.086Z,24.38
2022-10-28T18:48:30.885Z,26.63
2022-10-28T18:50:59.513Z,31.17
2022-10-28T18:53:26.942Z,26.67
2022-10-28T18:55:59.070Z,24.95
2022-10-28T18:58:27.078Z,28.48
2022-10-28T19:00:54.048Z,24.63
2022-10-28T19:03:23.355Z,25.15
2022-10-28T19:05:50.697Z,27.17
2022-10-28T19:08:17.585Z,25.25
2022-10-28T19:10:46.720Z,23.70
2022-10-28T19:13:13.852Z,24.23
2022-10-28T19:15:47.634Z,22.08
2022-10-28T19:18:19.243Z,22.23
2022-10-28T19:20:46.541Z,24.25
2022-10-28T19:23:22.152Z,23.33
2022-10-28T19:25:56.395Z,21.85
2022-10-28T19:28:23.372Z,25.10
2022-10-28T19:30:50.363Z,25.98
2022-10-28T19:33:17.259Z,24.08
2022-10-28T19:35:44.117Z,22.50
2022-10-28T19:38:11.064Z,26.48
2022-10-28T19:40:38.912Z,23.30
2022-10-28T19:43:07.315Z,22.65
2022-10-28T19:45:34.141Z,20.15
2022-10-28T19:48:02.019Z,25.80
2022-10-28T19:50:28.892Z,22.38
2022-10-28T19:52:55.789Z,24.92
2022-10-28T19:55:22.627Z,24.77
2022-10-28T19:57:51.995Z,22.02
2022-10-28T20:00:20.029Z,22.75
2022-10-28T20:02:48.479Z,22.73
2022-10-28T20:05:15.418Z,24.67
2022-10-28T20:07:42.328Z,21.17
2022-10-28T20:10:09.391Z,25.73
2022-10-28T20:12:36.265Z,22.30
2022-10-28T20:15:03.244Z,21.92
2022-10-28T20:17:30.097Z,25.42
2022-10-28T20:19:56.947Z,19.38
2022-10-28T20:22:23.853Z,19.15
2022-10-28T20:24:50.779Z,20.40
2022-10-28T20:27:17.733Z,28.38
2022-10-28T20:29:44.696Z,21.15
2022-10-28T20:32:11.587Z,22.15
2022-10-28T20:34:38.451Z,21.70
2022-10-28T20:37:05.590Z,21.83
2022-10-28T20:39:32.405Z,20.98
2022-10-28T20:41:59.246Z,23.77
2022-10-28T20:44:26.349Z,22.08
2022-10-28T20:46:53.187Z,24.42
2022-10-28T20:49:20.028Z,21.13
2022-10-28T20:51:48.915Z,24.75
2022-10-28T20:54:15.834Z,25.25
2022-10-28T20:56:43.059Z,22.60
2022-10-28T20:59:10.475Z,21.48
2022-10-28T21:01:40.147Z,23.20
2022-10-28T21:04:10.003Z,20.30
2022-10-28T21:06:38.344Z,23.88
2022-10-28T21:09:07.062Z,20.70
2022-10-28T21:11:34.251Z,22.08
2022-10-28T21:14:02.065Z,20.58
2022-10-28T21:16:29.921Z,22.73
2022-10-28T21:18:59.622Z,26.02
2022-10-28T21:21:27.675Z,18.90
2022-10-28T21:23:54.910Z,19.83
2022-10-28T21:26:22.108Z,20.25
2022-10-28T21:28:51.855Z,21.90
2022-10-28T21:31:20.486Z,17.98
2022-10-28T21:33:47.526Z,18.52
2022-10-28T21:36:19.894Z,20.67
2022-10-28T21:38:46.883Z,20.30
2022-10-28T21:41:16.503Z,19.98
2022-10-28T21:43:47.706Z,19.90
2022-10-28T21:46:15.297Z,20.40
2022-10-28T21:48:43.547Z,18.83
2022-10-28T21:51:15.374Z,21.00
2022-10-28T21:53:43.744Z,20.88
2022-10-28T21:56:17.092Z,22.58
2022-10-28T21:58:45.910Z,20.70
2022-10-28T22:01:20.194Z,21.02
2022-10-28T22:03:47.408Z,16.67
2022-10-28T22:06:14.620Z,23.52
2022-10-28T22:08:44.204Z,23.88
2022-10-28T22:11:19.866Z,25.90
2022-10-28T22:13:59.224Z,25.58
2022-10-28T22:16:29.059Z,20.55
2022-10-28T22:18:57.225Z,26.27
2022-10-28T22:21:28.699Z,25.23
2022-10-28T22:23:55.785Z,21.52
2022-10-28T22:26:29.258Z,23.52
2022-10-28T22:29:01.349Z,21.33
2022-10-28T22:31:33.806Z,21.33
2022-10-28T22:34:03.314Z,20.20
2022-10-28T22:36:30.699Z,21.70
2022-10-28T22:38:58.296Z,23.02
2022-10-28T22:41:34.461Z,24.00
2022-10-28T22:44:02.241Z,20.65
2022-10-28T22:46:32.115Z,22.73
2022-10-28T22:48:59.128Z,22.02
2022-10-28T22:51:30.481Z,25.08
2022-10-28T22:53:57.641Z,22.20
2022-10-28T22:56:28.087Z,21.50
2022-10-28T22:59:00.106Z,19.90
2022-10-28T23:01:28.662Z,27.17
2022-10-28T23:03:56.395Z,23.35
2022-10-28T23:06:25.951Z,22.58
2022-10-28T23:08:53.484Z,23.92
2022-10-28T23:11:21.768Z,21.80
2022-10-28T23:13:53.402Z,24.20
2022-10-28T23:16:21.053Z,20.83
2022-10-28T23:18:48.890Z,22.92
2022-10-28T23:21:22.277Z,19.23
2022-10-28T23:23:55.037Z,20.65
2022-10-28T23:26:22.839Z,21.83
2022-10-28T23:28:54.683Z,21.80
2022-10-28T23:31:23.770Z,21.08
2022-10-28T23:33:51.042Z,20.65
2022-10-28T23:36:18.019Z,24.50
2022-10-28T23:38:47.081Z,21.55
2022-10-28T23:41:18.704Z,21.05
2022-10-28T23:43:49.459Z,23.35
2022-10-28T23:46:18.016Z,20.15
2022-10-28T23:48:49.083Z,20.05
2022-10-28T23:51:15.991Z,22.58
2022-10-28T23:53:45.560Z,24.83
2022-10-28T23:56:16.831Z,21.33
2022-10-28T23:58:44.693Z,22.75
